createdAt,value
2023-04-22T00:01:46.531Z,99201.00
2023-04-22T00:04:15.011Z,99196.22
2023-04-22T00:06:43.250Z,99185.09
2023-04-22T00:09:11.692Z,99180.22
2023-04-22T00:11:39.448Z,99170.66
2023-04-22T00:14:07.258Z,99173.03
2023-04-22T00:16:35.101Z,99175.34
2023-04-22T00:19:07.007Z,99173.00
2023-04-22T00:21:34.656Z,99173.69
2023-04-22T00:24:02.950Z,99171.56
2023-04-22T00:26:30.609Z,99172.75
2023-04-22T00:28:58.399Z,99169.06
2023-04-22T00:31:26.159Z,99173.09
2023-04-22T00:33:54.113Z,99170.34
2023-04-22T00:36:23.615Z,99174.69
2023-04-22T00:38:51.804Z,99169.47
2023-04-22T00:41:20.053Z,99159.75
2023-04-22T00:43:47.694Z,99152.66
2023-04-22T00:46:17.223Z,99156.50
2023-04-22T00:48:47.114Z,99158.41
2023-04-22T00:51:14.771Z,99160.44
2023-04-22T00:53:43.799Z,99161.03
2023-04-22T00:56:12.600Z,99156.16
2023-04-22T00:58:40.468Z,99161.09
2023-04-22T01:01:08.284Z,99161.91
2023-04-22T01:03:39.902Z,99160.75
2023-04-22T01:06:08.328Z,99133.81
2023-04-22T01:08:36.072Z,99160.88
2023-04-22T01:11:05.195Z,99163.09
2023-04-22T01:13:32.946Z,99158.03
2023-04-22T01:16:02.570Z,99147.03
2023-04-22T01:18:30.646Z,99149.63
2023-04-22T01:20:58.312Z,99163.13
2023-04-22T01:23:27.649Z,99155.88
2023-04-22T01:25:55.882Z,99165.03
2023-04-22T01:28:24.390Z,99165.88
2023-04-22T01:30:52.304Z,99156.84
2023-04-22T01:33:20.365Z,99162.03
2023-04-22T01:35:48.279Z,99166.16
2023-04-22T01:38:15.958Z,99165.03
2023-04-22T01:40:45.027Z,99173.78
2023-04-22T01:43:12.779Z,99163.63
2023-04-22T01:45:40.844Z,99162.50
2023-04-22T01:48:08.653Z,99167.03
2023-04-22T01:50:38.199Z,99166.34
2023-04-22T01:53:08.210Z,99165.09
2023-04-22T01:55:37.192Z,99173.38
2023-04-22T01:58:06.464Z,99168.97
2023-04-22T02:00:34.394Z,99182.28
2023-04-22T02:03:02.266Z,99185.38
2023-04-22T02:05:30.190Z,99179.16
2023-04-22T02:07:58.028Z,99191.25
2023-04-22T02:10:25.756Z,99190.94
2023-04-22T02:12:53.488Z,99186.69
2023-04-22T02:15:22.799Z,99182.44
2023-04-22T02:17:52.986Z,99188.38
2023-04-22T02:20:20.675Z,99184.84
2023-04-22T02:22:48.492Z,99177.38
2023-04-22T02:25:16.680Z,99176.66
2023-04-22T02:27:44.462Z,99177.19
2023-04-22T02:30:13.234Z,99160.69
2023-04-22T02:32:42.265Z,99159.88
2023-04-22T02:35:12.225Z,99158.69
2023-04-22T02:37:40.344Z,99160.69
2023-04-22T02:40:09.623Z,99165.25
2023-04-22T02:42:37.315Z,99175.81
2023-04-22T02:45:05.806Z,99169.47
2023-04-22T02:47:33.516Z,99168.72
2023-04-22T02:50:02.525Z,99172.69
2023-04-22T02:52:30.347Z,99172.75
2023-04-22T02:54:58.116Z,99167.25
2023-04-22T02:57:26.026Z,99179.03
2023-04-22T02:59:54.135Z,99181.81
2023-04-22T03:02:23.020Z,99175.56
2023-04-22T03:05:04.074Z,99179.06
2023-04-22T03:07:32.215Z,99187.75
2023-04-22T03:10:00.637Z,99188.22
2023-04-22T03:12:28.429Z,99192.16
2023-04-22T03:14:56.314Z,99194.13
2023-04-22T03:17:27.971Z,99196.91
2023-04-22T03:19:56.271Z,99194.19
2023-04-22T03:22:25.410Z,99186.38
2023-04-22T03:24:56.722Z,99192.69
2023-04-22T03:27:24.422Z,99184.47
2023-04-22T03:29:52.092Z,99192.38
2023-04-22T03:32:19.886Z,99184.56
2023-04-22T03:34:51.386Z,99190.84
2023-04-22T03:37:20.216Z,99183.81
2023-04-22T03:39:49.338Z,99185.41
2023-04-22T03:42:20.547Z,99179.47
2023-04-22T03:44:48.292Z,99169.66
2023-04-22T03:47:18.183Z,99178.34
2023-04-22T03:49:52.461Z,99179.13
2023-04-22T03:52:20.652Z,99177.53
2023-04-22T03:54:58.020Z,99176.00
2023-04-22T03:57:25.820Z,99170.09
2023-04-22T03:59:53.632Z,99179.16
2023-04-22T04:02:21.493Z,99173.69
2023-04-22T04:04:49.551Z,99165.50
2023-04-22T04:07:17.504Z,99160.75
2023-04-22T04:09:45.213Z,99163.16
2023-04-22T04:12:15.351Z,99154.50
2023-04-22T04:14:45.465Z,99153.72
2023-04-22T04:17:17.520Z,99156.47
2023-04-22T04:19:45.506Z,99157.66
2023-04-22T04:22:13.485Z,99156.88
2023-04-22T04:24:50.572Z,99147.44
2023-04-22T04:27:24.686Z,99151.00
2023-04-22T04:29:55.941Z,99144.31
2023-04-22T04:32:53.388Z,99146.28
2023-04-22T04:35:22.148Z,99137.25
2023-04-22T04:37:55.313Z,99147.84
2023-04-22T04:40:23.896Z,99147.47
2023-04-22T04:43:04.349Z,99145.84
2023-04-22T04:45:37.866Z,99132.44
2023-04-22T04:48:07.014Z,99134.41
2023-04-22T04:50:37.624Z,99133.22
2023-04-22T04:53:05.382Z,99134.75
2023-04-22T04:55:38.327Z,99131.97
2023-04-22T04:58:13.378Z,99130.75
2023-04-22T05:00:41.162Z,99153.03
2023-04-22T05:03:09.952Z,99145.53
2023-04-22T05:05:37.837Z,99155.25
2023-04-22T05:08:05.779Z,99143.03
2023-04-22T05:10:36.392Z,99145.38
2023-04-22T05:13:05.199Z,99144.56
2023-04-22T05:15:35.475Z,99153.63
2023-04-22T05:18:03.911Z,99148.13
2023-04-22T05:20:35.339Z,99148.50
2023-04-22T05:23:04.473Z,99153.59
2023-04-22T05:25:32.477Z,99128.97
2023-04-22T05:28:06.090Z,99181.50
2023-04-22T05:30:42.806Z,99190.16
2023-04-22T05:33:10.906Z,99186.56
2023-04-22T05:35:38.846Z,99197.56
2023-04-22T05:38:07.984Z,99204.19
2023-04-22T05:40:39.340Z,99184.56
2023-04-22T05:43:08.140Z,99193.13
2023-04-22T05:45:37.666Z,99202.53
2023-04-22T05:48:08.975Z,99193.06
2023-04-22T05:50:43.369Z,99194.28
2023-04-22T05:53:11.090Z,99187.22
2023-04-22T05:55:38.843Z,99189.94
2023-04-22T05:58:09.057Z,99201.31
2023-04-22T06:00:53.933Z,99202.53
2023-04-22T06:03:47.091Z,99194.56
2023-04-22T06:06:15.070Z,99205.94
2023-04-22T06:08:42.776Z,99208.72
2023-04-22T06:11:11.855Z,99209.09
2023-04-22T06:13:39.766Z,99215.31
2023-04-22T06:18:38.289Z,99227.91
2023-04-22T06:21:11.118Z,99230.41
2023-04-22T06:23:38.861Z,99239.06
2023-04-22T06:26:06.648Z,99232.72
2023-04-22T06:28:36.090Z,99228.34
2023-04-22T06:31:08.933Z,99229.09
2023-04-22T06:33:37.102Z,99224.28
2023-04-22T06:36:05.791Z,99227.72
2023-04-22T06:38:36.123Z,99226.47
2023-04-22T06:41:19.214Z,99220.16
2023-04-22T06:43:50.652Z,99218.41
2023-04-22T06:46:43.966Z,99220.63
2023-04-22T06:49:30.389Z,99222.75
2023-04-22T06:51:58.031Z,99203.53
2023-04-22T06:54:27.442Z,99199.41
2023-04-22T06:56:55.940Z,99202.63
2023-04-22T06:59:24.473Z,99203.63
2023-04-22T07:01:52.895Z,99197.34
2023-04-22T07:04:20.820Z,99199.03
2023-04-22T07:06:48.607Z,99192.22
2023-04-22T07:09:16.658Z,99193.69
2023-04-22T07:11:46.309Z,99188.34
2023-04-22T07:14:18.760Z,99191.13
2023-04-22T07:16:47.545Z,99188.06
2023-04-22T07:19:15.368Z,99191.72
2023-04-22T07:21:43.037Z,99196.19
2023-04-22T07:24:12.100Z,99200.53
2023-04-22T07:26:40.154Z,99190.03
2023-04-22T07:29:09.199Z,99198.44
2023-04-22T07:31:37.272Z,99197.56
2023-04-22T07:34:05.107Z,99198.63
2023-04-22T07:36:33.153Z,99191.50
2023-04-22T07:39:00.816Z,99198.09
2023-04-22T07:41:28.519Z,99197.75
2023-04-22T07:43:56.314Z,99192.19
2023-04-22T07:46:25.368Z,99194.59
2023-04-22T07:48:53.176Z,99194.00
2023-04-22T07:51:20.808Z,99193.97
2023-04-22T07:53:48.432Z,99189.69
2023-04-22T07:56:16.460Z,99195.34
2023-04-22T07:58:44.179Z,99181.91
2023-04-22T08:01:11.835Z,99186.75
2023-04-22T08:03:41.074Z,99183.88
2023-04-22T08:06:08.989Z,99193.22
2023-04-22T08:08:36.696Z,99200.22
2023-04-22T08:11:04.819Z,99203.91
2023-04-22T08:13:32.466Z,99197.09
2023-04-22T08:16:02.682Z,99200.88
2023-04-22T08:18:30.711Z,99191.72
2023-04-22T08:21:00.171Z,99197.38
2023-04-22T08:23:27.829Z,99200.81
2023-04-22T08:25:55.508Z,99193.03
2023-04-22T08:28:23.356Z,99197.00
2023-04-22T08:30:51.007Z,99201.84
2023-04-22T08:33:18.650Z,99201.88
2023-04-22T08:35:46.361Z,99205.19
2023-04-22T08:38:15.620Z,99198.00
2023-04-22T08:40:43.651Z,99198.69
2023-04-22T08:43:11.293Z,99201.50
2023-04-22T08:45:40.615Z,99184.66
2023-04-22T08:48:09.538Z,99183.31
2023-04-22T08:50:38.582Z,99196.16
2023-04-22T08:53:06.500Z,99187.16
2023-04-22T08:55:36.907Z,99191.25
2023-04-22T08:58:06.268Z,99192.25
2023-04-22T09:00:34.452Z,99180.16
2023-04-22T09:03:05.914Z,99165.06
2023-04-22T09:05:34.917Z,99185.44
2023-04-22T09:08:03.994Z,99185.19
2023-04-22T09:10:34.015Z,99178.66
2023-04-22T09:13:05.442Z,99180.81
2023-04-22T09:15:33.389Z,99160.41
2023-04-22T09:18:03.018Z,99177.19
2023-04-22T09:20:31.239Z,99165.66
2023-04-22T09:23:04.388Z,99161.63
2023-04-22T09:25:34.601Z,99163.34
2023-04-22T09:28:03.742Z,99165.97
2023-04-22T09:30:33.176Z,99160.44
2023-04-22T09:33:02.507Z,99165.59
2023-04-22T09:35:32.202Z,99167.84
2023-04-22T09:38:01.646Z,99158.50
2023-04-22T09:40:29.811Z,99160.59
2023-04-22T09:42:59.624Z,99159.06
2023-04-22T09:45:33.078Z,99156.41
2023-04-22T09:48:04.157Z,99167.13
2023-04-22T09:50:31.995Z,99167.09
2023-04-22T09:53:01.902Z,99168.91
2023-04-22T09:55:31.507Z,99167.09
2023-04-22T09:57:59.572Z,99149.69
2023-04-22T10:00:32.190Z,99150.28
2023-04-22T10:03:00.209Z,99152.25
2023-04-22T10:05:29.519Z,99148.25
2023-04-22T10:07:57.230Z,99130.53
2023-04-22T10:10:25.346Z,99138.88
2023-04-22T10:12:54.022Z,99140.06
2023-04-22T10:15:21.842Z,99139.72
2023-04-22T10:17:54.204Z,99141.19
2023-04-22T10:20:23.548Z,99144.88
2023-04-22T10:22:53.745Z,99139.34
2023-04-22T10:25:25.660Z,99137.81
2023-04-22T10:28:03.599Z,99135.28
2023-04-22T10:30:32.998Z,99142.34
2023-04-22T10:33:35.190Z,99138.94
2023-04-22T10:36:16.483Z,99135.78
2023-04-22T10:39:17.756Z,99134.38
2023-04-22T10:41:52.147Z,99132.16
2023-04-22T10:44:21.430Z,99141.13
2023-04-22T10:46:59.828Z,99140.41
2023-04-22T10:49:31.317Z,99135.78
2023-04-22T10:52:01.411Z,99128.59
2023-04-22T10:54:58.905Z,99131.63
2023-04-22T10:57:37.770Z,99122.97
2023-04-22T11:00:25.534Z,99123.94
2023-04-22T11:02:56.125Z,99135.69
2023-04-22T11:05:27.050Z,99120.66
2023-04-22T11:08:02.430Z,99122.56
2023-04-22T11:10:35.799Z,99125.03
2023-04-22T11:13:03.967Z,99127.44
2023-04-22T11:15:32.177Z,99118.84
2023-04-22T11:18:00.144Z,99111.72
2023-04-22T11:20:29.556Z,99118.78
2023-04-22T11:22:58.947Z,99113.34
2023-04-22T11:25:28.220Z,99119.53
2023-04-22T11:27:56.116Z,99117.38
2023-04-22T11:30:25.190Z,99114.81
2023-04-22T11:32:55.804Z,99121.06
2023-04-22T11:35:25.279Z,99125.88
2023-04-22T11:37:55.887Z,99116.16
2023-04-22T11:40:31.183Z,99119.72
2023-04-22T11:43:00.617Z,99130.81
2023-04-22T11:45:30.207Z,99121.09
2023-04-22T11:47:58.764Z,99134.34
2023-04-22T11:50:28.642Z,99120.72
2023-04-22T11:52:57.988Z,99119.94
2023-04-22T11:55:30.504Z,99108.41
2023-04-22T11:57:59.794Z,99112.19
2023-04-22T12:00:32.984Z,99112.75
2023-04-22T12:03:01.953Z,99119.81
2023-04-22T12:05:40.994Z,99112.66
2023-04-22T12:08:10.692Z,99101.41
2023-04-22T12:10:45.189Z,99100.19
2023-04-22T12:13:19.969Z,99096.25
2023-04-22T12:15:48.052Z,99080.13
2023-04-22T12:18:15.837Z,99098.44
2023-04-22T12:20:43.768Z,99093.03
2023-04-22T12:23:15.762Z,99101.38
2023-04-22T12:25:45.136Z,99104.13
2023-04-22T12:28:14.227Z,99095.88
2023-04-22T12:30:42.275Z,99102.16
2023-04-22T12:33:10.235Z,99106.00
2023-04-22T12:35:37.875Z,99102.06
2023-04-22T12:38:05.538Z,99108.63
2023-04-22T12:40:33.293Z,99103.28
2023-04-22T12:43:05.832Z,99110.44
2023-04-22T12:45:33.595Z,99104.44
2023-04-22T12:48:01.501Z,99102.59
2023-04-22T12:50:29.166Z,99095.94
2023-04-22T12:52:56.806Z,99106.47
2023-04-22T12:55:24.716Z,99091.50
2023-04-22T12:57:52.798Z,99097.50
2023-04-22T13:00:22.757Z,99117.38
2023-04-22T13:02:50.608Z,99105.09
2023-04-22T13:05:19.615Z,99111.44
2023-04-22T13:07:59.614Z,99115.00
2023-04-22T13:10:34.215Z,99096.28
2023-04-22T13:13:16.852Z,99105.16
2023-04-22T13:15:47.950Z,99106.28
2023-04-22T13:18:17.010Z,99106.41
2023-04-22T13:20:44.924Z,99110.69
2023-04-22T13:23:13.269Z,99102.19
2023-04-22T13:25:41.142Z,99118.84
2023-04-22T13:28:10.349Z,99105.50
2023-04-22T13:30:37.933Z,99108.81
2023-04-22T13:33:07.247Z,99100.56
2023-04-22T13:35:34.903Z,99109.59
2023-04-22T13:38:02.744Z,99117.56
2023-04-22T13:40:30.456Z,99098.44
2023-04-22T13:42:58.307Z,99089.31
2023-04-22T13:45:26.138Z,99108.22
2023-04-22T13:47:54.735Z,99105.13
2023-04-22T13:50:24.398Z,99105.75
2023-04-22T13:52:52.212Z,99100.28
2023-04-22T13:55:20.425Z,99107.13
2023-04-22T13:57:48.141Z,99098.91
2023-04-22T14:00:16.064Z,99099.41
2023-04-22T14:02:43.797Z,99099.53
2023-04-22T14:05:11.635Z,99097.03
2023-04-22T14:07:40.753Z,99097.81
2023-04-22T14:10:12.059Z,99093.94
2023-04-22T14:12:39.989Z,99100.78
2023-04-22T14:15:10.769Z,99097.38
2023-04-22T14:17:38.760Z,99096.88
2023-04-22T14:20:08.279Z,99097.84
2023-04-22T14:22:35.952Z,99106.53
2023-04-22T14:25:05.469Z,99094.88
2023-04-22T14:27:33.281Z,99096.41
2023-04-22T14:30:01.205Z,99100.78
2023-04-22T14:32:29.324Z,99106.97
2023-04-22T14:34:57.053Z,99109.00
2023-04-22T14:37:24.801Z,99104.34
2023-04-22T14:39:52.701Z,99109.13
2023-04-22T14:42:21.789Z,99105.75
2023-04-22T14:44:49.442Z,99097.06
2023-04-22T14:47:17.076Z,99099.66
2023-04-22T14:49:44.788Z,99104.03
2023-04-22T14:52:12.639Z,99094.25
2023-04-22T14:54:40.304Z,99097.50
2023-04-22T14:57:08.080Z,99101.09
2023-04-22T14:59:37.071Z,99096.13
2023-04-22T15:02:05.238Z,99095.50
2023-04-22T15:04:33.058Z,99091.75
2023-04-22T15:07:01.633Z,99087.75
2023-04-22T15:09:29.411Z,99091.16
2023-04-22T15:11:59.478Z,99087.59
2023-04-22T15:14:27.224Z,99092.41
2023-04-22T15:16:56.510Z,99084.50
2023-04-22T15:19:25.226Z,99082.13
2023-04-22T15:21:52.884Z,99090.56
2023-04-22T15:24:21.349Z,99084.28
2023-04-22T15:26:49.113Z,99099.34
2023-04-22T15:29:16.761Z,99092.50
2023-04-22T15:31:45.594Z,99097.72
2023-04-22T15:34:14.690Z,99091.31
2023-04-22T15:36:42.527Z,99094.00
2023-04-22T15:39:10.639Z,99099.31
2023-04-22T15:41:38.564Z,99097.72
2023-04-22T15:44:08.548Z,99093.09
2023-04-22T15:46:36.915Z,99091.53
2023-04-22T15:49:05.184Z,99086.09
2023-04-22T15:51:34.253Z,99082.25
2023-04-22T15:54:03.752Z,99081.19
2023-04-22T15:56:32.936Z,99088.03
2023-04-22T15:59:00.725Z,99078.53
2023-04-22T16:01:28.408Z,99089.69
2023-04-22T16:03:56.407Z,99083.22
2023-04-22T16:06:24.131Z,99085.03
2023-04-22T16:08:53.380Z,99090.44
2023-04-22T16:11:21.070Z,99086.22
2023-04-22T16:13:48.709Z,99086.53
2023-04-22T16:16:17.509Z,99077.53
2023-04-22T16:18:45.413Z,99089.00
2023-04-22T16:21:13.259Z,99087.56
2023-04-22T16:23:41.015Z,99084.59
2023-04-22T16:26:10.543Z,99089.28
2023-04-22T16:28:38.219Z,99088.69
2023-04-22T16:31:06.064Z,99080.78
2023-04-22T16:33:34.153Z,99093.22
2023-04-22T16:36:02.037Z,99087.81
2023-04-22T16:38:29.707Z,99084.28
2023-04-22T16:40:57.943Z,99086.50
2023-04-22T16:43:27.052Z,99084.00
2023-04-22T16:45:54.693Z,99077.03
2023-04-22T16:48:22.623Z,99078.44
2023-04-22T16:50:51.185Z,99075.63
2023-04-22T16:53:18.878Z,99079.66
2023-04-22T16:55:46.469Z,99080.59
2023-04-22T16:58:14.094Z,99081.91
2023-04-22T17:00:43.091Z,99071.97
2023-04-22T17:03:11.859Z,99076.44
2023-04-22T17:05:39.991Z,99071.19
2023-04-22T17:08:08.192Z,99073.78
2023-04-22T17:10:37.278Z,99076.19
2023-04-22T17:13:04.890Z,99068.69
2023-04-22T17:15:32.670Z,99076.88
2023-04-22T17:18:02.442Z,99067.38
2023-04-22T17:20:30.152Z,99074.63
2023-04-22T17:22:58.399Z,99079.91
2023-04-22T17:25:26.062Z,99074.00
2023-04-22T17:27:53.718Z,99074.97
2023-04-22T17:30:21.586Z,99080.34
2023-04-22T17:32:49.275Z,99074.44
2023-04-22T17:35:18.445Z,99082.72
2023-04-22T17:37:46.314Z,99081.88
2023-04-22T17:40:14.022Z,99077.75
2023-04-22T17:45:13.065Z,99074.00
2023-04-22T17:47:40.767Z,99076.78
2023-04-22T17:50:09.666Z,99073.06
2023-04-22T17:52:38.687Z,99063.84
2023-04-22T17:55:07.454Z,99075.88
2023-04-22T17:57:35.115Z,99072.56
2023-04-22T18:00:02.807Z,99076.47
2023-04-22T18:02:35.369Z,99075.84
2023-04-22T18:05:03.173Z,99084.53
2023-04-22T18:07:30.949Z,99087.19
2023-04-22T18:10:00.003Z,99099.41
2023-04-22T18:12:30.616Z,99113.06
2023-04-22T18:14:58.782Z,99102.03
2023-04-22T18:17:26.658Z,99112.06
2023-04-22T18:20:02.753Z,99122.31
2023-04-22T18:22:34.126Z,99107.84
2023-04-22T18:25:03.206Z,99119.31
2023-04-22T18:27:31.443Z,99124.75
2023-04-22T18:29:59.136Z,99126.31
2023-04-22T18:32:26.911Z,99106.47
2023-04-22T18:34:54.678Z,99140.50
2023-04-22T18:37:22.345Z,99137.88
2023-04-22T18:39:49.978Z,99139.25
2023-04-22T18:42:19.280Z,99140.72
2023-04-22T18:44:46.908Z,99143.94
2023-04-22T18:47:14.680Z,99143.38
2023-04-22T18:49:42.330Z,99149.97
2023-04-22T18:52:09.988Z,99156.28
2023-04-22T18:54:37.674Z,99161.72
2023-04-22T18:57:05.840Z,99158.75
2023-04-22T18:59:34.855Z,99160.97
2023-04-22T19:02:02.702Z,99165.88
2023-04-22T19:04:30.530Z,99158.41
2023-04-22T19:06:59.114Z,99171.50
2023-04-22T19:09:26.855Z,99175.19
2023-04-22T19:11:54.575Z,99170.28
2023-04-22T19:14:22.306Z,99176.50
2023-04-22T19:16:51.258Z,99178.16
2023-04-22T19:19:18.981Z,99172.13
2023-04-22T19:21:46.661Z,99174.88
2023-04-22T19:24:14.571Z,99187.03
2023-04-22T19:26:42.455Z,99175.47
2023-04-22T19:29:10.687Z,99178.88
2023-04-22T19:31:38.452Z,99180.78
2023-04-22T19:34:07.565Z,99181.97
2023-04-22T19:36:35.251Z,99181.44
2023-04-22T19:39:03.037Z,99181.91
2023-04-22T19:41:33.318Z,99181.13
2023-04-22T19:44:01.004Z,99178.28
2023-04-22T19:46:28.908Z,99171.53
2023-04-22T19:48:57.802Z,99184.06
2023-04-22T19:51:27.089Z,99180.56
2023-04-22T19:53:55.853Z,99187.13
2023-04-22T19:56:23.993Z,99180.19
2023-04-22T19:58:52.985Z,99188.72
2023-04-22T20:01:21.188Z,99185.22
2023-04-22T20:03:49.900Z,99186.16
2023-04-22T20:06:18.106Z,99187.97
2023-04-22T20:08:47.988Z,99188.78
2023-04-22T20:11:15.864Z,99196.56
2023-04-22T20:13:45.699Z,99190.13
2023-04-22T20:16:15.034Z,99198.19
2023-04-22T20:18:42.987Z,99200.03
2023-04-22T20:21:10.832Z,99200.03
2023-04-22T20:23:40.988Z,99199.69
2023-04-22T20:26:10.358Z,99201.63
2023-04-22T20:28:45.829Z,99195.38
2023-04-22T20:31:14.453Z,99202.44
2023-04-22T20:33:42.644Z,99200.91
2023-04-22T20:36:11.348Z,99200.25
2023-04-22T20:38:39.350Z,99197.22
2023-04-22T20:41:08.496Z,99192.66
2023-04-22T20:43:37.630Z,99202.84
2023-04-22T20:46:05.395Z,99204.41
2023-04-22T20:48:33.148Z,99204.03
2023-04-22T20:51:00.835Z,99208.00
2023-04-22T20:53:28.639Z,99198.69
2023-04-22T20:55:56.419Z,99213.28
2023-04-22T20:58:24.345Z,99208.47
2023-04-22T21:00:53.464Z,99207.75
2023-04-22T21:03:23.548Z,99206.19
2023-04-22T21:05:52.347Z,99207.38
2023-04-22T21:08:22.848Z,99206.31
2023-04-22T21:10:52.510Z,99207.13
2023-04-22T21:13:21.008Z,99202.41
2023-04-22T21:15:56.748Z,99199.72
2023-04-22T21:18:26.409Z,99203.31
2023-04-22T21:20:56.541Z,99198.19
2023-04-22T21:23:25.484Z,99194.53
2023-04-22T21:25:55.706Z,99199.03
2023-04-22T21:28:23.989Z,99192.38
2023-04-22T21:30:52.250Z,99195.44
2023-04-22T21:33:21.292Z,99195.06
2023-04-22T21:35:49.291Z,99194.81
2023-04-22T21:38:17.135Z,99194.03
2023-04-22T21:40:45.118Z,99195.97
2023-04-22T21:43:12.938Z,99203.03
2023-04-22T21:45:40.770Z,99196.84
2023-04-22T21:48:08.853Z,99199.97
2023-04-22T21:50:38.229Z,99198.81
2023-04-22T21:53:06.522Z,99188.97
2023-04-22T21:55:34.563Z,99194.84
2023-04-22T21:58:02.320Z,99191.00
2023-04-22T22:00:30.818Z,99201.22
2023-04-22T22:02:58.730Z,99190.16
2023-04-22T22:05:26.435Z,99201.19
2023-04-22T22:07:56.874Z,99212.25
2023-04-22T22:10:25.175Z,99197.28
2023-04-22T22:12:52.926Z,99203.59
2023-04-22T22:15:20.837Z,99205.22
2023-04-22T22:17:48.818Z,99201.22
2023-04-22T22:20:19.964Z,99198.81
2023-04-22T22:22:47.868Z,99161.25
2023-04-22T22:25:17.321Z,99202.00
2023-04-22T22:27:47.087Z,99201.31
2023-04-22T22:30:15.348Z,99202.78
2023-04-22T22:32:43.119Z,99209.97
2023-04-22T22:35:11.420Z,99208.09
2023-04-22T22:37:39.061Z,99204.75
2023-04-22T22:40:08.592Z,99211.88
2023-04-22T22:42:37.591Z,99213.41
2023-04-22T22:45:06.700Z,99209.84
2023-04-22T22:47:34.569Z,99212.59
2023-04-22T22:50:02.393Z,99214.91
2023-04-22T22:52:30.405Z,99212.78
2023-04-22T22:54:58.032Z,99214.28
2023-04-22T22:57:26.154Z,99218.13
2023-04-22T22:59:55.491Z,99215.78
2023-04-22T23:02:23.237Z,99221.34
2023-04-22T23:04:51.232Z,99219.69
2023-04-22T23:07:18.949Z,99230.38
2023-04-22T23:09:46.637Z,99223.34
2023-04-22T23:12:14.275Z,99224.34
2023-04-22T23:14:42.348Z,99222.94
2023-04-22T23:17:11.832Z,99223.09
2023-04-22T23:19:42.225Z,99217.47
2023-04-22T23:22:11.473Z,99212.06
2023-04-22T23:24:40.039Z,99202.94
2023-04-22T23:27:08.215Z,99208.13
2023-04-22T23:29:36.764Z,99204.06
2023-04-22T23:32:05.948Z,99199.84
2023-04-22T23:34:36.214Z,99194.16
2023-04-22T23:37:06.368Z,99199.63
2023-04-22T23:39:34.095Z,99198.38
2023-04-22T23:42:02.518Z,99201.66
2023-04-22T23:44:30.174Z,99203.78
2023-04-22T23:46:58.081Z,99196.25
2023-04-22T23:49:25.839Z,99197.09
2023-04-22T23:51:55.651Z,99198.19
2023-04-22T23:54:23.852Z,99201.78
2023-04-22T23:56:52.444Z,99196.25
2023-04-22T23:59:20.675Z,99197.34
